createdAt,value
2022-07-30T00:00:05.770Z,22.25
2022-07-30T00:01:06.736Z,22.22
2022-07-30T00:02:05.739Z,22.21
2022-07-30T00:03:05.765Z,22.21
2022-07-30T00:04:05.796Z,22.18
2022-07-30T00:05:05.705Z,22.17
2022-07-30T00:06:05.674Z,22.17
2022-07-30T00:07:05.712Z,22.10
2022-07-30T00:08:05.664Z,22.03
2022-07-30T00:09:05.654Z,21.96
2022-07-30T00:10:05.675Z,21.92
2022-07-30T00:11:05.654Z,21.88
2022-07-30T00:12:05.623Z,21.83
2022-07-30T00:13:05.587Z,21.79
2022-07-30T00:14:05.597Z,21.77
2022-07-30T00:15:05.626Z,21.77
2022-07-30T00:16:05.567Z,21.74
2022-07-30T00:17:05.755Z,21.74
2022-07-30T00:18:05.527Z,21.74
2022-07-30T00:19:05.525Z,21.75
2022-07-30T00:20:05.533Z,21.77
2022-07-30T00:21:05.528Z,21.82
2022-07-30T00:22:05.506Z,21.83
2022-07-30T00:23:05.523Z,21.84
2022-07-30T00:24:05.447Z,21.84
2022-07-30T00:25:05.598Z,21.83
2022-07-30T00:26:05.429Z,21.83
2022-07-30T00:27:05.440Z,21.84
2022-07-30T00:28:05.426Z,21.69
2022-07-30T00:29:05.389Z,21.32
2022-07-30T00:30:05.440Z,21.04
2022-07-30T00:31:05.495Z,20.91
2022-07-30T00:32:05.356Z,20.82
2022-07-30T00:33:05.337Z,20.79
2022-07-30T00:34:05.340Z,20.80
2022-07-30T00:35:05.311Z,20.88
2022-07-30T00:36:05.322Z,20.92
2022-07-30T00:37:05.299Z,20.95
2022-07-30T00:38:05.297Z,20.97
2022-07-30T00:39:05.772Z,20.98
2022-07-30T00:40:05.262Z,20.99
2022-07-30T00:41:05.274Z,21.01
2022-07-30T00:42:05.246Z,21.03
2022-07-30T00:43:05.250Z,21.04
2022-07-30T00:44:05.204Z,21.04
2022-07-30T00:45:05.194Z,20.99
2022-07-30T00:46:05.252Z,20.77
2022-07-30T00:47:05.228Z,20.64
2022-07-30T00:48:05.216Z,20.55
2022-07-30T00:49:05.194Z,20.52
2022-07-30T00:50:05.164Z,20.55
2022-07-30T00:51:05.137Z,20.61
2022-07-30T00:52:05.114Z,20.61
2022-07-30T00:53:05.086Z,20.57
2022-07-30T00:54:05.103Z,20.57
2022-07-30T00:55:05.051Z,20.57
2022-07-30T00:56:05.051Z,20.58
2022-07-30T00:57:05.013Z,20.59
2022-07-30T00:58:05.024Z,20.62
2022-07-30T00:59:04.977Z,20.64
2022-07-30T01:00:05.024Z,20.69
2022-07-30T01:01:04.992Z,20.73
2022-07-30T01:02:05.000Z,20.76
2022-07-30T01:03:04.956Z,20.82
2022-07-30T01:04:04.924Z,20.87
2022-07-30T01:05:04.961Z,20.91
2022-07-30T01:06:04.904Z,20.94
2022-07-30T01:07:04.908Z,20.97
2022-07-30T01:08:04.905Z,20.98
2022-07-30T01:09:04.959Z,20.95
2022-07-30T01:10:04.865Z,20.94
2022-07-30T01:11:04.831Z,20.92
2022-07-30T01:12:04.856Z,20.94
2022-07-30T01:13:04.845Z,20.92
2022-07-30T01:14:04.809Z,20.91
2022-07-30T01:15:04.779Z,20.88
2022-07-30T01:16:04.864Z,20.88
2022-07-30T01:17:04.773Z,20.88
2022-07-30T01:18:04.785Z,20.88
2022-07-30T01:19:04.771Z,20.88
2022-07-30T01:20:04.710Z,20.88
2022-07-30T01:21:04.745Z,20.85
2022-07-30T01:22:04.686Z,20.82
2022-07-30T01:23:04.723Z,20.79
2022-07-30T01:24:04.687Z,20.74
2022-07-30T01:25:04.655Z,20.69
2022-07-30T01:26:04.723Z,20.64
2022-07-30T01:27:04.635Z,20.61
2022-07-30T01:28:04.657Z,20.58
2022-07-30T01:29:04.661Z,20.57
2022-07-30T01:30:04.591Z,20.55
2022-07-30T01:31:04.623Z,20.58
2022-07-30T01:32:04.621Z,20.55
2022-07-30T01:33:04.565Z,20.55
2022-07-30T01:34:04.592Z,20.52
2022-07-30T01:35:04.533Z,20.47
2022-07-30T01:36:04.523Z,20.39
2022-07-30T01:37:04.700Z,20.35
2022-07-30T01:38:04.542Z,20.31
2022-07-30T01:39:04.504Z,20.29
2022-07-30T01:40:04.483Z,20.24
2022-07-30T01:41:04.465Z,20.20
2022-07-30T01:42:05.311Z,20.05
2022-07-30T01:43:04.442Z,19.96
2022-07-30T01:44:04.446Z,19.91
2022-07-30T01:45:04.407Z,19.92
2022-07-30T01:46:04.468Z,19.91
2022-07-30T01:47:04.362Z,19.83
2022-07-30T01:48:04.354Z,19.65
2022-07-30T01:49:04.431Z,19.44
2022-07-30T01:50:04.360Z,19.36
2022-07-30T01:51:04.334Z,19.29
2022-07-30T01:52:04.319Z,19.26
2022-07-30T01:53:04.318Z,19.26
2022-07-30T01:54:04.289Z,19.29
2022-07-30T01:55:04.321Z,19.37
2022-07-30T01:56:04.249Z,19.43
2022-07-30T01:57:04.262Z,19.54
2022-07-30T01:58:04.236Z,19.56
2022-07-30T01:59:04.206Z,19.56
2022-07-30T02:00:04.254Z,19.56
2022-07-30T02:01:04.274Z,19.58
2022-07-30T02:02:04.197Z,19.62
2022-07-30T02:03:04.174Z,19.68
2022-07-30T02:04:04.227Z,19.73
2022-07-30T02:05:04.172Z,19.76
2022-07-30T02:06:04.130Z,19.81
2022-07-30T02:07:04.438Z,19.84
2022-07-30T02:08:04.085Z,19.84
2022-07-30T02:09:06.994Z,19.83
2022-07-30T02:10:04.121Z,19.84
2022-07-30T02:11:04.125Z,19.84
2022-07-30T02:12:04.048Z,19.81
2022-07-30T02:13:04.043Z,19.78
2022-07-30T02:14:04.011Z,19.69
2022-07-30T02:15:04.026Z,19.65
2022-07-30T02:16:04.099Z,19.66
2022-07-30T02:17:04.323Z,19.69
2022-07-30T02:18:03.960Z,19.68
2022-07-30T02:19:04.380Z,19.71
2022-07-30T02:20:09.225Z,19.73
2022-07-30T02:21:07.290Z,19.74
2022-07-30T02:22:03.930Z,19.74
2022-07-30T02:23:03.900Z,19.73
2022-07-30T02:24:03.908Z,19.73
2022-07-30T02:25:03.889Z,19.74
2022-07-30T02:26:03.891Z,19.74
2022-07-30T02:27:04.273Z,19.76
2022-07-30T02:28:03.835Z,19.73
2022-07-30T02:29:07.307Z,19.69
2022-07-30T02:30:03.792Z,19.65
2022-07-30T02:31:03.840Z,19.63
2022-07-30T02:32:03.781Z,19.62
2022-07-30T02:33:03.813Z,19.58
2022-07-30T02:34:03.757Z,19.54
2022-07-30T02:35:03.800Z,19.48
2022-07-30T02:36:03.729Z,19.46
2022-07-30T02:37:03.942Z,19.40
2022-07-30T02:38:03.732Z,19.33
2022-07-30T02:39:03.703Z,19.26
2022-07-30T02:40:03.683Z,19.23
2022-07-30T02:41:03.678Z,19.19
2022-07-30T02:42:03.655Z,19.10
2022-07-30T02:43:03.712Z,19.06
2022-07-30T02:44:03.636Z,18.99
2022-07-30T02:45:03.660Z,18.98
2022-07-30T02:46:03.612Z,18.98
2022-07-30T02:47:04.591Z,18.92
2022-07-30T02:48:03.591Z,18.88
2022-07-30T02:49:03.598Z,18.88
2022-07-30T02:50:03.656Z,18.85
2022-07-30T02:51:03.541Z,18.87
2022-07-30T02:52:03.527Z,18.87
2022-07-30T02:53:03.525Z,18.88
2022-07-30T02:54:03.519Z,18.91
2022-07-30T02:55:03.532Z,18.95
2022-07-30T02:56:03.485Z,18.99
2022-07-30T02:57:03.809Z,19.04
2022-07-30T02:58:03.423Z,19.07
2022-07-30T02:59:03.484Z,19.11
2022-07-30T03:00:03.451Z,19.13
2022-07-30T03:01:03.557Z,19.14
2022-07-30T03:02:03.484Z,19.14
2022-07-30T03:03:03.382Z,19.16
2022-07-30T03:04:03.361Z,19.16
2022-07-30T03:05:03.371Z,19.14
2022-07-30T03:06:03.361Z,19.02
2022-07-30T03:07:08.201Z,18.84
2022-07-30T03:08:03.346Z,18.70
2022-07-30T03:09:03.306Z,18.57
2022-07-30T03:10:03.297Z,18.37
2022-07-30T03:11:03.314Z,18.18
2022-07-30T03:12:03.271Z,17.99
2022-07-30T03:13:03.235Z,17.82
2022-07-30T03:14:03.243Z,17.71
2022-07-30T03:15:03.223Z,17.63
2022-07-30T03:16:03.290Z,17.63
2022-07-30T03:17:03.302Z,17.63
2022-07-30T03:18:03.164Z,17.59
2022-07-30T03:19:03.197Z,17.66
2022-07-30T03:20:03.216Z,17.75
2022-07-30T03:21:03.182Z,17.81
2022-07-30T03:22:03.151Z,17.89
2022-07-30T03:23:03.147Z,17.97
2022-07-30T03:24:03.132Z,18.08
2022-07-30T03:25:03.092Z,18.17
2022-07-30T03:26:03.124Z,18.27
2022-07-30T03:27:03.321Z,18.35
2022-07-30T03:28:03.055Z,18.42
2022-07-30T03:29:03.028Z,18.48
2022-07-30T03:30:03.017Z,18.54
2022-07-30T03:31:03.098Z,18.58
2022-07-30T03:32:03.032Z,18.60
2022-07-30T03:33:03.009Z,18.63
2022-07-30T03:34:02.965Z,18.63
2022-07-30T03:35:06.075Z,18.62
2022-07-30T03:36:02.939Z,18.63
2022-07-30T03:37:03.377Z,18.58
2022-07-30T03:38:03.265Z,18.54
2022-07-30T03:39:02.912Z,18.50
2022-07-30T03:40:02.904Z,18.45
2022-07-30T03:41:02.884Z,18.36
2022-07-30T03:42:03.227Z,18.30
2022-07-30T03:43:02.858Z,18.25
2022-07-30T03:44:02.851Z,18.21
2022-07-30T03:45:02.862Z,18.26
2022-07-30T03:46:02.977Z,18.32
2022-07-30T03:47:03.464Z,18.36
2022-07-30T03:48:02.806Z,18.42
2022-07-30T03:49:02.829Z,18.48
2022-07-30T03:50:02.759Z,18.55
2022-07-30T03:51:02.753Z,18.58
2022-07-30T03:52:02.741Z,18.60
2022-07-30T03:53:02.757Z,18.57
2022-07-30T03:54:02.698Z,18.50
2022-07-30T03:55:02.705Z,18.47
2022-07-30T03:56:02.690Z,18.45
2022-07-30T03:57:03.203Z,18.47
2022-07-30T03:58:02.688Z,18.48
2022-07-30T03:59:02.654Z,18.51
2022-07-30T04:00:02.641Z,18.54
2022-07-30T04:01:02.605Z,18.57
2022-07-30T04:02:05.978Z,18.57
2022-07-30T04:03:02.618Z,18.54
2022-07-30T04:04:02.660Z,18.44
2022-07-30T04:05:02.567Z,18.35
2022-07-30T04:06:02.535Z,18.32
2022-07-30T04:07:02.702Z,18.35
2022-07-30T04:08:02.527Z,18.37
2022-07-30T04:09:02.550Z,18.44
2022-07-30T04:10:02.481Z,18.48
2022-07-30T04:11:02.497Z,18.51
2022-07-30T04:12:02.471Z,18.55
2022-07-30T04:13:05.375Z,18.57
2022-07-30T04:14:02.489Z,18.55
2022-07-30T04:15:02.429Z,18.54
2022-07-30T04:16:38.994Z,18.55
2022-07-30T04:17:02.902Z,18.55
2022-07-30T04:18:02.382Z,18.55
2022-07-30T04:19:02.697Z,18.57
2022-07-30T04:20:02.371Z,18.55
2022-07-30T04:21:02.379Z,18.57
2022-07-30T04:22:02.368Z,18.60
2022-07-30T04:23:02.340Z,18.57
2022-07-30T04:24:05.158Z,18.55
2022-07-30T04:25:02.290Z,18.52
2022-07-30T04:26:02.289Z,18.52
2022-07-30T04:27:02.752Z,18.50
2022-07-30T04:28:03.765Z,18.54
2022-07-30T04:29:02.279Z,18.54
2022-07-30T04:30:02.275Z,18.57
2022-07-30T04:31:02.234Z,18.54
2022-07-30T04:32:02.219Z,18.54
2022-07-30T04:33:02.187Z,18.52
2022-07-30T04:34:03.001Z,18.51
2022-07-30T04:35:02.189Z,18.48
2022-07-30T04:36:02.142Z,18.44
2022-07-30T04:37:02.415Z,18.45
2022-07-30T04:38:02.121Z,18.45
2022-07-30T04:39:02.148Z,18.48
2022-07-30T04:40:02.115Z,18.50
2022-07-30T04:41:02.090Z,18.52
2022-07-30T04:42:02.092Z,18.51
2022-07-30T04:43:02.061Z,18.51
2022-07-30T04:44:02.078Z,18.50
2022-07-30T04:45:02.071Z,18.50
2022-07-30T04:46:02.087Z,18.48
2022-07-30T04:47:02.534Z,18.50
2022-07-30T04:48:01.975Z,18.47
2022-07-30T04:49:02.039Z,18.47
2022-07-30T04:50:02.000Z,18.48
2022-07-30T04:51:01.970Z,18.50
2022-07-30T04:52:01.998Z,18.51
2022-07-30T04:53:01.959Z,18.54
2022-07-30T04:54:01.919Z,18.55
2022-07-30T04:55:01.967Z,18.55
2022-07-30T04:56:01.888Z,18.57
2022-07-30T04:57:02.348Z,18.57
2022-07-30T04:58:02.121Z,18.60
2022-07-30T04:59:01.851Z,18.60
2022-07-30T05:00:01.864Z,18.62
2022-07-30T05:01:01.831Z,18.62
2022-07-30T05:02:01.860Z,18.62
2022-07-30T05:03:01.809Z,18.60
2022-07-30T05:04:01.793Z,18.60
2022-07-30T05:05:01.840Z,18.63
2022-07-30T05:06:01.818Z,18.69
2022-07-30T05:07:02.013Z,18.70
2022-07-30T05:08:01.754Z,18.72
2022-07-30T05:09:01.716Z,18.75
2022-07-30T05:10:01.723Z,18.80
2022-07-30T05:11:01.753Z,18.81
2022-07-30T05:12:01.690Z,18.82
2022-07-30T05:13:01.685Z,18.84
2022-07-30T05:14:01.674Z,18.88
2022-07-30T05:15:01.675Z,18.88
2022-07-30T05:16:01.668Z,18.88
2022-07-30T05:17:01.967Z,18.90
2022-07-30T05:18:01.588Z,18.94
2022-07-30T05:19:01.606Z,18.98
2022-07-30T05:20:01.578Z,18.95
2022-07-30T05:21:01.547Z,18.98
2022-07-30T05:22:06.371Z,18.98
2022-07-30T05:23:01.571Z,18.99
2022-07-30T05:24:01.515Z,19.02
2022-07-30T05:25:01.519Z,19.04
2022-07-30T05:26:01.525Z,19.04
2022-07-30T05:27:01.874Z,19.02
2022-07-30T05:28:01.472Z,19.00
2022-07-30T05:29:03.951Z,19.00
2022-07-30T05:30:01.495Z,19.00
2022-07-30T05:31:01.444Z,19.02
2022-07-30T05:32:02.652Z,19.07
2022-07-30T05:33:03.716Z,19.10
2022-07-30T05:34:03.567Z,19.11
2022-07-30T05:35:01.452Z,19.10
2022-07-30T05:36:01.409Z,19.11
2022-07-30T05:37:01.934Z,19.14
2022-07-30T05:38:01.367Z,19.18
2022-07-30T05:39:01.362Z,19.23
2022-07-30T05:40:03.261Z,19.29
2022-07-30T05:41:01.293Z,19.32
2022-07-30T05:42:01.306Z,19.31
2022-07-30T05:43:01.276Z,19.29
2022-07-30T05:44:01.262Z,19.29
2022-07-30T05:45:01.260Z,19.29
2022-07-30T05:46:01.349Z,19.29
2022-07-30T05:47:01.592Z,19.29
2022-07-30T05:48:01.223Z,19.32
2022-07-30T05:49:01.250Z,19.33
2022-07-30T05:50:04.715Z,19.39
2022-07-30T05:51:01.183Z,19.40
2022-07-30T05:52:01.259Z,19.39
2022-07-30T05:53:01.134Z,19.40
2022-07-30T05:54:01.131Z,19.39
2022-07-30T05:55:01.246Z,19.40
2022-07-30T05:56:01.110Z,19.44
2022-07-30T05:57:01.412Z,19.46
2022-07-30T05:58:01.067Z,19.48
2022-07-30T05:59:01.057Z,19.54
2022-07-30T06:00:01.126Z,19.58
2022-07-30T06:01:01.066Z,19.61
2022-07-30T06:02:01.062Z,19.65
2022-07-30T06:03:01.033Z,19.71
2022-07-30T06:04:01.096Z,19.76
2022-07-30T06:05:01.094Z,19.78
2022-07-30T06:06:00.974Z,19.83
2022-07-30T06:07:01.279Z,19.88
2022-07-30T06:08:00.956Z,19.92
2022-07-30T06:09:00.950Z,19.96
2022-07-30T06:10:00.904Z,19.99
2022-07-30T06:11:00.958Z,20.03
2022-07-30T06:12:00.938Z,20.06
2022-07-30T06:13:00.878Z,20.10
2022-07-30T06:14:00.896Z,20.11
2022-07-30T06:15:00.843Z,20.16
2022-07-30T06:16:00.951Z,20.17
2022-07-30T06:17:01.217Z,20.18
2022-07-30T06:18:01.703Z,20.21
2022-07-30T06:19:00.823Z,20.23
2022-07-30T06:20:00.789Z,20.28
2022-07-30T06:21:00.775Z,20.29
2022-07-30T06:22:05.931Z,20.33
2022-07-30T06:23:00.767Z,20.33
2022-07-30T06:24:01.232Z,20.39
2022-07-30T06:25:00.707Z,20.41
2022-07-30T06:26:00.723Z,20.47
2022-07-30T06:27:01.035Z,20.48
2022-07-30T06:28:10.681Z,20.51
2022-07-30T06:29:00.710Z,20.54
2022-07-30T06:30:00.663Z,20.59
2022-07-30T06:31:00.689Z,20.64
2022-07-30T06:32:00.639Z,20.67
2022-07-30T06:33:00.650Z,20.70
2022-07-30T06:34:00.634Z,20.76
2022-07-30T06:35:04.611Z,20.82
2022-07-30T06:36:00.607Z,20.85
2022-07-30T06:37:00.863Z,20.94
2022-07-30T06:38:07.315Z,20.98
2022-07-30T06:39:00.536Z,21.04
2022-07-30T06:40:00.556Z,21.10
2022-07-30T06:41:02.810Z,21.17
2022-07-30T06:42:00.517Z,21.24
2022-07-30T06:43:00.543Z,21.31
2022-07-30T06:44:00.471Z,21.38
2022-07-30T06:45:00.452Z,21.49
2022-07-30T06:46:00.577Z,21.56
2022-07-30T06:47:06.800Z,21.64
2022-07-30T06:48:00.499Z,21.71
2022-07-30T06:49:00.531Z,21.79
2022-07-30T06:50:00.412Z,21.83
2022-07-30T06:51:00.431Z,21.83
2022-07-30T06:52:00.387Z,21.86
2022-07-30T06:53:00.403Z,21.88
2022-07-30T06:54:00.370Z,21.91
2022-07-30T06:55:00.324Z,21.98
2022-07-30T06:56:00.740Z,21.99
2022-07-30T06:57:00.694Z,22.02
2022-07-30T06:58:00.338Z,22.06
2022-07-30T06:59:00.329Z,22.06
2022-07-30T07:00:01.056Z,22.07
2022-07-30T07:01:00.369Z,22.10
2022-07-30T07:02:00.247Z,22.12
2022-07-30T07:03:00.238Z,22.12
2022-07-30T07:04:00.326Z,22.14
2022-07-30T07:05:00.226Z,22.10
2022-07-30T07:06:00.192Z,22.09
2022-07-30T07:07:00.384Z,22.07
2022-07-30T07:08:00.166Z,22.03
2022-07-30T07:09:00.186Z,22.00
2022-07-30T07:10:00.163Z,22.00
2022-07-30T07:11:00.125Z,21.99
2022-07-30T07:12:00.117Z,22.00
2022-07-30T07:13:00.163Z,22.00
2022-07-30T07:14:04.157Z,22.02
2022-07-30T07:15:00.108Z,22.05
2022-07-30T07:16:00.068Z,22.09
2022-07-30T07:17:00.290Z,22.12
2022-07-30T07:18:02.228Z,22.17
2022-07-30T07:19:00.075Z,22.17
2022-07-30T07:20:02.587Z,22.14
2022-07-30T07:21:00.009Z,22.07
2022-07-30T07:22:00.069Z,22.03
2022-07-30T07:22:59.951Z,21.99
2022-07-30T07:24:00.013Z,21.98
2022-07-30T07:24:59.974Z,21.98
2022-07-30T07:25:59.949Z,21.98
2022-07-30T07:27:00.245Z,22.02
2022-07-30T07:28:12.595Z,22.06
2022-07-30T07:29:03.479Z,22.09
2022-07-30T07:30:01.304Z,22.12
2022-07-30T07:30:59.928Z,22.15
2022-07-30T07:32:05.366Z,22.17
2022-07-30T07:32:59.821Z,22.17
2022-07-30T07:33:59.885Z,22.17
2022-07-30T07:34:59.864Z,22.18
2022-07-30T07:35:59.821Z,22.20
2022-07-30T07:37:00.052Z,22.25
2022-07-30T07:37:59.767Z,22.30
2022-07-30T07:38:59.758Z,22.31
2022-07-30T07:39:59.757Z,22.36
2022-07-30T07:40:59.761Z,22.37
2022-07-30T07:41:59.748Z,22.39
2022-07-30T07:42:59.718Z,22.45
2022-07-30T07:43:59.762Z,22.51
2022-07-30T07:44:59.693Z,22.57
2022-07-30T07:45:59.733Z,22.65
2022-07-30T07:47:00.115Z,22.70
2022-07-30T07:47:59.635Z,22.73
2022-07-30T07:48:59.766Z,22.72
2022-07-30T07:49:59.632Z,22.73
2022-07-30T07:51:00.577Z,22.70
2022-07-30T07:51:59.598Z,22.70
2022-07-30T07:52:59.594Z,22.72
2022-07-30T07:54:19.838Z,22.77
2022-07-30T07:54:59.567Z,22.85
2022-07-30T07:55:59.566Z,22.91
2022-07-30T07:57:01.486Z,23.01
2022-07-30T07:57:59.515Z,23.13
2022-07-30T07:58:59.539Z,23.31
2022-07-30T07:59:59.514Z,23.38
2022-07-30T08:00:59.531Z,23.50
2022-07-30T08:01:59.503Z,23.69
2022-07-30T08:02:59.448Z,23.93
2022-07-30T08:03:59.521Z,24.16
2022-07-30T08:04:59.497Z,24.46
2022-07-30T08:06:05.599Z,24.65
2022-07-30T08:06:59.699Z,24.81
2022-07-30T08:07:59.793Z,25.00
2022-07-30T08:08:59.356Z,25.15
2022-07-30T08:09:59.358Z,25.28
2022-07-30T08:10:59.390Z,25.30
2022-07-30T08:11:59.355Z,25.32
2022-07-30T08:12:59.328Z,25.28
2022-07-30T08:13:59.336Z,25.24
2022-07-30T08:14:59.282Z,25.14
2022-07-30T08:15:59.309Z,25.10
2022-07-30T08:16:59.353Z,25.17
2022-07-30T08:17:59.261Z,25.30
2022-07-30T08:18:59.235Z,25.43
2022-07-30T08:19:59.239Z,25.60
2022-07-30T08:20:59.203Z,25.70
2022-07-30T08:21:59.253Z,25.75
2022-07-30T08:22:59.206Z,25.87
2022-07-30T08:23:59.174Z,25.95
2022-07-30T08:24:59.165Z,26.06
2022-07-30T08:25:59.192Z,26.15
2022-07-30T08:26:59.415Z,26.28
2022-07-30T08:27:59.155Z,26.29
2022-07-30T08:28:59.117Z,26.33
2022-07-30T08:29:59.088Z,26.40
2022-07-30T08:31:02.069Z,26.54
2022-07-30T08:31:59.457Z,26.55
2022-07-30T08:32:59.101Z,26.63
2022-07-30T08:33:59.050Z,26.66
2022-07-30T08:34:59.034Z,26.57
2022-07-30T08:36:02.868Z,26.58
2022-07-30T08:36:59.034Z,26.63
2022-07-30T08:37:59.037Z,26.75
2022-07-30T08:38:59.215Z,26.91
2022-07-30T08:39:59.035Z,26.84
2022-07-30T08:40:58.943Z,26.65
2022-07-30T08:41:58.977Z,26.63
2022-07-30T08:42:58.932Z,26.60
2022-07-30T08:43:58.934Z,26.55
2022-07-30T08:44:58.947Z,26.63
2022-07-30T08:45:58.883Z,26.73
2022-07-30T08:46:59.361Z,26.92
2022-07-30T08:47:58.881Z,27.10
2022-07-30T08:48:59.899Z,27.27
2022-07-30T08:49:58.891Z,27.43
2022-07-30T08:50:58.917Z,27.60
2022-07-30T08:51:59.058Z,27.69
2022-07-30T08:52:58.848Z,27.78
2022-07-30T08:53:58.847Z,27.81
2022-07-30T08:54:58.789Z,27.92
2022-07-30T08:55:58.907Z,27.92
2022-07-30T08:56:58.743Z,27.90
2022-07-30T08:57:58.765Z,27.88
2022-07-30T08:58:58.737Z,27.85
2022-07-30T09:00:00.535Z,27.96
2022-07-30T09:00:58.704Z,27.99
2022-07-30T09:01:59.084Z,27.99
2022-07-30T09:02:58.694Z,28.09
2022-07-30T09:03:58.744Z,28.24
2022-07-30T09:04:58.658Z,28.46
2022-07-30T09:05:58.738Z,28.70
2022-07-30T09:06:59.078Z,28.71
2022-07-30T09:07:58.635Z,28.68
2022-07-30T09:08:58.584Z,28.59
2022-07-30T09:09:58.575Z,28.61
2022-07-30T09:10:58.603Z,28.64
2022-07-30T09:11:58.568Z,28.55
2022-07-30T09:12:58.559Z,28.40
2022-07-30T09:13:58.541Z,28.33
2022-07-30T09:14:58.523Z,28.12
2022-07-30T09:15:58.571Z,28.19
2022-07-30T09:16:58.693Z,28.25
2022-07-30T09:17:58.523Z,28.19
2022-07-30T09:18:58.466Z,28.04
2022-07-30T09:19:58.489Z,27.97
2022-07-30T09:20:58.449Z,27.99
2022-07-30T09:21:58.457Z,28.06
2022-07-30T09:22:58.407Z,28.03
2022-07-30T09:23:58.434Z,28.18
2022-07-30T09:24:58.407Z,28.33
2022-07-30T09:25:58.402Z,28.43
2022-07-30T09:26:58.406Z,28.44
2022-07-30T09:27:58.367Z,28.55
2022-07-30T09:28:58.338Z,28.54
2022-07-30T09:29:58.368Z,28.62
2022-07-30T09:30:58.336Z,28.85
2022-07-30T09:31:58.307Z,29.11
2022-07-30T09:32:58.296Z,29.37
2022-07-30T09:33:58.283Z,29.57
2022-07-30T09:34:58.285Z,29.51
2022-07-30T09:35:58.252Z,29.23
2022-07-30T09:36:58.258Z,29.06
2022-07-30T09:38:00.766Z,29.00
2022-07-30T09:38:58.235Z,28.93
2022-07-30T09:39:59.134Z,28.93
2022-07-30T09:40:58.314Z,28.98
2022-07-30T09:41:58.179Z,29.11
2022-07-30T09:42:58.171Z,29.26
2022-07-30T09:43:58.152Z,29.39
2022-07-30T09:44:58.123Z,29.43
2022-07-30T09:45:58.203Z,29.43
2022-07-30T09:46:58.130Z,29.28
2022-07-30T09:47:58.799Z,29.23
2022-07-30T09:48:58.133Z,29.14
2022-07-30T09:49:59.956Z,29.26
2022-07-30T09:50:58.072Z,29.49
2022-07-30T09:51:58.070Z,29.76
2022-07-30T09:52:58.037Z,29.73
2022-07-30T09:53:58.032Z,29.45
2022-07-30T09:54:58.004Z,29.14
2022-07-30T09:55:58.025Z,29.05
2022-07-30T09:56:57.993Z,29.12
2022-07-30T09:57:58.768Z,29.27
2022-07-30T09:58:57.955Z,29.33
2022-07-30T09:59:58.108Z,28.93
2022-07-30T10:00:58.156Z,28.77
2022-07-30T10:02:00.572Z,28.76
2022-07-30T10:02:57.955Z,28.76
2022-07-30T10:03:57.905Z,28.58
2022-07-30T10:04:57.885Z,28.70
2022-07-30T10:05:57.908Z,28.88
2022-07-30T10:06:57.875Z,29.02
2022-07-30T10:07:57.885Z,29.11
2022-07-30T10:08:57.866Z,29.23
2022-07-30T10:09:57.820Z,29.37
2022-07-30T10:10:57.787Z,29.57
2022-07-30T10:11:57.843Z,29.78
2022-07-30T10:12:57.780Z,29.92
2022-07-30T10:13:57.901Z,29.71
2022-07-30T10:14:57.751Z,29.52
2022-07-30T10:15:57.724Z,29.55
2022-07-30T10:16:57.740Z,29.37
2022-07-30T10:17:57.733Z,29.16
2022-07-30T10:18:57.775Z,29.15
2022-07-30T10:19:57.681Z,28.98
2022-07-30T10:20:57.690Z,28.95
2022-07-30T10:21:57.673Z,28.96
2022-07-30T10:22:57.670Z,29.09
2022-07-30T10:23:57.657Z,29.11
2022-07-30T10:24:57.622Z,29.21
2022-07-30T10:25:57.643Z,29.21
2022-07-30T10:26:57.618Z,29.21
2022-07-30T10:27:58.175Z,29.11
2022-07-30T10:28:57.622Z,29.06
2022-07-30T10:29:57.564Z,29.11
2022-07-30T10:30:57.574Z,28.96
2022-07-30T10:31:57.560Z,28.71
2022-07-30T10:32:57.540Z,28.54
2022-07-30T10:33:57.512Z,28.22
2022-07-30T10:34:57.505Z,28.00
2022-07-30T10:35:57.531Z,28.07
2022-07-30T10:36:57.465Z,28.34
2022-07-30T10:37:57.453Z,28.61
2022-07-30T10:38:57.473Z,28.92
2022-07-30T10:39:57.441Z,29.11
2022-07-30T10:40:57.418Z,29.30
2022-07-30T10:41:57.446Z,29.31
2022-07-30T10:42:57.388Z,29.28
2022-07-30T10:43:57.409Z,29.27
2022-07-30T10:44:57.366Z,29.36
2022-07-30T10:45:57.348Z,29.36
2022-07-30T10:46:57.335Z,29.42
2022-07-30T10:47:57.340Z,29.41
2022-07-30T10:48:57.532Z,29.26
2022-07-30T10:49:57.317Z,29.24
2022-07-30T10:50:57.281Z,29.31
2022-07-30T10:51:57.492Z,29.41
2022-07-30T10:52:57.323Z,29.34
2022-07-30T10:53:57.253Z,29.30
2022-07-30T10:54:57.253Z,29.28
2022-07-30T10:55:57.217Z,29.21
2022-07-30T10:56:57.230Z,29.14
2022-07-30T10:57:57.255Z,29.09
2022-07-30T10:58:57.224Z,29.11
2022-07-30T10:59:57.192Z,29.08
2022-07-30T11:00:57.161Z,29.09
2022-07-30T11:01:57.140Z,29.11
2022-07-30T11:02:57.155Z,29.08
2022-07-30T11:03:57.160Z,29.12
2022-07-30T11:04:57.130Z,29.23
2022-07-30T11:05:57.091Z,29.34
2022-07-30T11:06:57.082Z,29.30
2022-07-30T11:07:57.146Z,29.33
2022-07-30T11:08:58.256Z,29.34
2022-07-30T11:10:05.212Z,29.30
2022-07-30T11:10:57.045Z,29.11
2022-07-30T11:12:01.431Z,28.96
2022-07-30T11:12:57.046Z,28.95
2022-07-30T11:13:57.008Z,28.92
2022-07-30T11:14:56.983Z,28.83
2022-07-30T11:15:57.054Z,28.76
2022-07-30T11:16:56.984Z,28.71
2022-07-30T11:17:56.949Z,28.77
2022-07-30T11:19:07.099Z,28.81
2022-07-30T11:20:01.590Z,28.90
2022-07-30T11:20:56.960Z,28.98
2022-07-30T11:21:56.915Z,29.09
2022-07-30T11:22:56.980Z,29.24
2022-07-30T11:23:56.930Z,29.36
2022-07-30T11:24:56.896Z,29.43
2022-07-30T11:25:56.872Z,29.49
2022-07-30T11:26:56.838Z,29.52
2022-07-30T11:27:56.867Z,29.61
2022-07-30T11:28:56.865Z,29.70
2022-07-30T11:29:56.837Z,29.79
2022-07-30T11:30:56.792Z,29.86
2022-07-30T11:32:07.722Z,29.94
2022-07-30T11:32:56.787Z,29.94
2022-07-30T11:33:56.764Z,29.82
2022-07-30T11:34:56.726Z,29.70
2022-07-30T11:35:56.733Z,29.58
2022-07-30T11:36:56.760Z,29.45
2022-07-30T11:37:56.692Z,29.36
2022-07-30T11:39:00.096Z,29.21
2022-07-30T11:39:56.745Z,29.24
2022-07-30T11:40:56.669Z,29.36
2022-07-30T11:41:56.682Z,29.51
2022-07-30T11:42:56.645Z,29.64
2022-07-30T11:43:56.635Z,29.65
2022-07-30T11:44:59.727Z,29.74
2022-07-30T11:45:56.636Z,29.78
2022-07-30T11:46:56.577Z,29.78
2022-07-30T11:47:56.594Z,29.73
2022-07-30T11:48:56.648Z,29.60
2022-07-30T11:49:56.556Z,29.46
2022-07-30T11:51:00.714Z,29.46
2022-07-30T11:51:56.512Z,29.41
2022-07-30T11:52:56.493Z,29.43
2022-07-30T11:53:56.482Z,29.49
2022-07-30T11:54:56.474Z,29.51
2022-07-30T11:55:56.538Z,29.53
2022-07-30T11:56:59.558Z,29.58
2022-07-30T11:57:56.450Z,29.60
2022-07-30T11:58:56.435Z,29.60
2022-07-30T11:59:56.416Z,29.61
2022-07-30T12:00:56.414Z,29.65
2022-07-30T12:01:56.395Z,29.71
2022-07-30T12:02:58.817Z,29.79
2022-07-30T12:03:56.413Z,29.87
2022-07-30T12:04:56.389Z,29.94
2022-07-30T12:05:56.345Z,29.98
2022-07-30T12:06:56.356Z,30.07
2022-07-30T12:07:56.316Z,30.05
2022-07-30T12:08:58.689Z,29.98
2022-07-30T12:09:56.320Z,30.05
2022-07-30T12:10:56.286Z,30.11
2022-07-30T12:11:56.306Z,30.13
2022-07-30T12:12:56.294Z,30.19
2022-07-30T12:13:56.227Z,30.26
2022-07-30T12:15:00.214Z,30.26
2022-07-30T12:15:56.231Z,30.24
2022-07-30T12:16:56.203Z,30.22
2022-07-30T12:18:05.628Z,30.13
2022-07-30T12:18:56.204Z,30.13
2022-07-30T12:19:56.204Z,30.05
2022-07-30T12:20:57.688Z,29.92
2022-07-30T12:21:56.130Z,29.76
2022-07-30T12:22:56.172Z,29.70
2022-07-30T12:23:56.112Z,29.78
2022-07-30T12:24:56.099Z,29.87
2022-07-30T12:25:56.075Z,30.00
2022-07-30T12:26:56.077Z,30.05
2022-07-30T12:27:56.069Z,30.04
2022-07-30T12:28:56.051Z,30.07
2022-07-30T12:29:56.083Z,30.05
2022-07-30T12:30:56.013Z,30.00
2022-07-30T12:31:56.005Z,29.95
2022-07-30T12:32:56.015Z,29.98
2022-07-30T12:33:55.980Z,30.05
2022-07-30T12:34:56.266Z,30.07
2022-07-30T12:35:55.985Z,30.10
2022-07-30T12:36:55.958Z,30.13
2022-07-30T12:37:56.017Z,30.08
2022-07-30T12:38:55.978Z,30.08
2022-07-30T12:39:55.927Z,30.13
2022-07-30T12:40:55.918Z,30.20
2022-07-30T12:41:55.982Z,30.19
2022-07-30T12:42:55.930Z,30.20
2022-07-30T12:43:55.859Z,30.11
2022-07-30T12:44:55.864Z,30.05
2022-07-30T12:45:55.876Z,30.05
2022-07-30T12:46:55.818Z,30.10
2022-07-30T12:47:55.807Z,30.17
2022-07-30T12:48:55.862Z,30.27
2022-07-30T12:49:55.888Z,30.42
2022-07-30T12:50:55.769Z,30.46
2022-07-30T12:52:00.274Z,30.53